Terminal Aerodrome Forecast
Issued by NWS Kansas City/Pleasant Hill, MO

Home | Current Version | Previous Version | Text Only | Print | Product List | Glossary On
Versions: 1 2 3 4 5 6 7 8 9 10 11 12 13 14 15 16 17
000
FTUS43 KEAX 191400 AAA
TAFMCI
TAF AMD
KMCI 191423Z 1914/2012 16010KT P6SM OVC007
     FM191700 17010KT P6SM BKN012
     FM191900 17011KT P6SM BKN025
     FM192100 17011KT P6SM SCT025=

USA.gov is the U.S. government's official web portal to all federal, state and local government web resources and services.